createdAt,value
2019-05-13T00:00:23.405Z,17.48
2019-05-13T00:02:50.579Z,12.35
2019-05-13T00:05:18.192Z,14.25
2019-05-13T00:07:46.064Z,14.50
2019-05-13T00:10:14.589Z,11.90
2019-05-13T00:12:44.757Z,16.45
2019-05-13T00:15:13.929Z,17.12
2019-05-13T00:17:41.388Z,15.50
2019-05-13T00:20:09.001Z,18.50
2019-05-13T00:22:36.589Z,16.65
2019-05-13T00:25:06.040Z,17.45
2019-05-13T00:27:33.868Z,20.10
2019-05-13T00:30:04.134Z,15.80
2019-05-13T00:32:33.569Z,16.15
2019-05-13T00:35:03.799Z,14.43
2019-05-13T00:37:30.685Z,15.75
2019-05-13T00:39:58.281Z,15.38
2019-05-13T00:42:26.181Z,17.17
2019-05-13T00:44:53.953Z,15.10
2019-05-13T00:47:23.555Z,18.82
2019-05-13T00:49:51.032Z,13.45
2019-05-13T00:52:18.647Z,14.13
2019-05-13T00:54:47.059Z,15.38
2019-05-13T00:57:14.672Z,17.30
2019-05-13T00:59:44.147Z,15.53
2019-05-13T01:02:13.822Z,13.72
2019-05-13T01:04:40.750Z,15.85
2019-05-13T01:07:21.994Z,15.88
2019-05-13T01:09:37.596Z,15.48
2019-05-13T01:12:05.218Z,15.35
2019-05-13T01:14:34.168Z,17.98
2019-05-13T01:17:03.886Z,15.83
2019-05-13T01:19:31.257Z,16.67
2019-05-13T01:21:59.191Z,16.67
2019-05-13T01:24:26.782Z,16.77
2019-05-13T01:26:54.677Z,12.88
2019-05-13T01:29:23.866Z,15.08
2019-05-13T01:31:53.869Z,15.78
2019-05-13T01:34:23.542Z,14.40
2019-05-13T01:36:53.403Z,17.52
2019-05-13T01:39:20.430Z,14.75
2019-05-13T01:41:48.340Z,14.43
2019-05-13T01:44:16.216Z,16.20
2019-05-13T01:46:43.928Z,12.43
2019-05-13T01:49:13.485Z,17.45
2019-05-13T01:51:41.067Z,14.93
2019-05-13T01:54:08.662Z,16.82
2019-05-13T01:56:36.281Z,15.95
2019-05-13T01:59:04.198Z,15.43
2019-05-13T02:01:33.715Z,19.67
2019-05-13T02:04:03.657Z,16.37
2019-05-13T02:06:30.309Z,17.25
2019-05-13T02:08:58.181Z,14.00
2019-05-13T02:11:26.089Z,14.20
2019-05-13T02:13:54.133Z,16.32
2019-05-13T02:16:24.258Z,19.42
2019-05-13T02:18:53.294Z,16.50
2019-05-13T02:21:20.277Z,17.87
2019-05-13T02:23:47.892Z,14.35
2019-05-13T02:26:15.483Z,17.70
2019-05-13T02:28:43.582Z,18.77
2019-05-13T02:31:13.733Z,16.62
2019-05-13T02:33:42.394Z,17.52
2019-05-13T02:36:13.225Z,15.58
2019-05-13T02:38:42.475Z,15.18
2019-05-13T02:41:08.285Z,15.28
2019-05-13T02:43:35.910Z,16.57
2019-05-13T02:46:04.434Z,12.55
2019-05-13T02:48:33.162Z,13.50
2019-05-13T02:51:03.713Z,12.63
2019-05-13T02:53:33.269Z,18.15
2019-05-13T02:56:02.665Z,14.65
2019-05-13T02:58:28.645Z,14.68
2019-05-13T03:00:56.260Z,13.50
2019-05-13T03:03:24.080Z,12.73
2019-05-13T03:05:52.969Z,14.85
2019-05-13T03:08:35.310Z,12.55
2019-05-13T03:10:52.753Z,19.40
2019-05-13T03:13:19.373Z,13.60
2019-05-13T03:15:46.969Z,12.23
2019-05-13T03:18:14.585Z,14.05
2019-05-13T03:20:43.024Z,16.70
2019-05-13T03:23:13.487Z,13.88
2019-05-13T03:25:42.893Z,13.62
2019-05-13T03:28:13.183Z,15.08
2019-05-13T03:30:38.892Z,12.37
2019-05-13T03:33:10.938Z,14.13
2019-05-13T03:35:37.183Z,14.20
2019-05-13T03:38:05.086Z,12.78
2019-05-13T03:40:33.032Z,16.10
2019-05-13T03:43:02.801Z,16.95
2019-05-13T03:45:32.679Z,11.40
2019-05-13T03:47:59.549Z,12.13
2019-05-13T03:50:30.662Z,13.32
2019-05-13T03:52:58.597Z,14.43
2019-05-13T03:55:26.226Z,14.20
2019-05-13T03:57:53.801Z,7.85
2019-05-13T04:00:23.553Z,11.40
2019-05-13T04:02:52.142Z,9.23
2019-05-13T04:05:22.933Z,6.53
2019-05-13T04:07:52.042Z,11.43
2019-05-13T04:10:18.435Z,6.08
2019-05-13T04:12:46.026Z,5.90
2019-05-13T04:15:13.999Z,6.22
2019-05-13T04:17:42.838Z,13.00
2019-05-13T04:20:12.592Z,6.40
2019-05-13T04:22:42.556Z,7.00
2019-05-13T04:25:12.422Z,6.33
2019-05-13T04:27:38.714Z,11.10
2019-05-13T04:30:08.236Z,9.10
2019-05-13T04:32:36.129Z,7.95
2019-05-13T04:35:04.383Z,6.50
2019-05-13T04:37:33.129Z,8.08
2019-05-13T04:40:03.657Z,3.33
2019-05-13T04:42:33.127Z,4.85
2019-05-13T04:45:02.622Z,5.03
2019-05-13T04:47:28.545Z,6.75
2019-05-13T04:49:56.179Z,5.03
2019-05-13T04:52:23.757Z,7.85
2019-05-13T04:54:52.815Z,5.92
2019-05-13T04:57:22.729Z,6.42
2019-05-13T04:59:54.983Z,7.95
2019-05-13T05:02:40.045Z,7.15
2019-05-13T05:05:18.764Z,8.25
2019-05-13T05:08:11.791Z,6.00
2019-05-13T05:10:42.847Z,10.25
2019-05-13T05:13:32.371Z,4.92
2019-05-13T05:16:12.957Z,4.75
2019-05-13T05:19:12.089Z,8.13
2019-05-13T05:21:44.409Z,7.60
2019-05-13T05:24:32.439Z,6.07
2019-05-13T05:27:22.500Z,7.17
2019-05-13T05:30:11.398Z,6.30
2019-05-13T05:32:42.329Z,3.33
2019-05-13T05:35:22.321Z,6.60
2019-05-13T05:37:56.258Z,4.83
2019-05-13T05:40:31.292Z,6.85
2019-05-13T05:42:54.754Z,6.22
2019-05-13T05:45:22.367Z,7.35
2019-05-13T05:47:51.162Z,8.45
2019-05-13T05:50:18.745Z,6.75
2019-05-13T05:52:46.616Z,7.62
2019-05-13T05:55:14.227Z,3.55
2019-05-13T05:57:41.986Z,5.20
2019-05-13T06:00:11.507Z,7.37
2019-05-13T06:02:42.498Z,4.72
2019-05-13T06:05:12.495Z,7.60
2019-05-13T06:07:41.938Z,7.33
2019-05-13T06:10:10.838Z,4.37
2019-05-13T06:12:38.609Z,5.67
2019-05-13T06:15:06.190Z,2.92
2019-05-13T06:17:33.809Z,4.75
2019-05-13T06:20:03.604Z,7.67
2019-05-13T06:22:32.073Z,4.25
2019-05-13T06:25:01.432Z,5.10
2019-05-13T06:27:31.598Z,3.52
2019-05-13T06:30:01.965Z,3.50
2019-05-13T06:32:28.241Z,5.92
2019-05-13T06:34:55.828Z,5.55
2019-05-13T06:37:23.444Z,9.83
2019-05-13T06:39:51.321Z,4.15
2019-05-13T06:42:18.941Z,4.72
2019-05-13T06:44:47.096Z,4.85
2019-05-13T06:47:14.713Z,5.35
2019-05-13T06:49:42.956Z,5.55
2019-05-13T06:52:12.000Z,6.67
2019-05-13T06:54:41.836Z,5.30
2019-05-13T06:57:13.138Z,4.12
2019-05-13T06:59:38.567Z,6.60
2019-05-13T07:02:06.497Z,4.40
2019-05-13T07:04:34.098Z,3.65
2019-05-13T07:07:12.822Z,4.10
2019-05-13T07:09:32.455Z,5.25
2019-05-13T07:12:02.896Z,4.67
2019-05-13T07:14:32.135Z,9.18
2019-05-13T07:17:01.687Z,3.92
2019-05-13T07:19:28.462Z,7.00
2019-05-13T07:21:56.067Z,5.55
2019-05-13T07:24:23.651Z,5.33
2019-05-13T07:26:52.295Z,2.00
2019-05-13T07:29:20.423Z,5.30
2019-05-13T07:31:49.138Z,7.00
2019-05-13T07:34:17.020Z,6.45
2019-05-13T07:36:44.679Z,10.53
2019-05-13T07:39:12.349Z,4.33
2019-05-13T07:41:42.913Z,5.60
2019-05-13T07:44:11.669Z,4.28
2019-05-13T07:46:38.431Z,4.87
2019-05-13T07:49:06.044Z,4.60
2019-05-13T07:51:33.643Z,6.35
2019-05-13T07:54:02.225Z,5.30
2019-05-13T07:56:32.441Z,6.00
2019-05-13T07:59:01.735Z,4.55
2019-05-13T08:01:28.828Z,4.30
2019-05-13T08:03:56.439Z,5.33
2019-05-13T08:06:24.048Z,5.78
2019-05-13T08:08:52.259Z,5.22
2019-05-13T08:11:22.191Z,9.65
2019-05-13T08:13:51.571Z,4.95
2019-05-13T08:16:18.555Z,2.05
2019-05-13T08:18:46.458Z,3.00
2019-05-13T08:21:14.048Z,4.67
2019-05-13T08:23:41.822Z,3.30
2019-05-13T08:26:09.440Z,3.47
2019-05-13T08:28:52.806Z,7.25
2019-05-13T08:31:06.307Z,8.00
2019-05-13T08:33:34.245Z,6.00
2019-05-13T08:36:01.948Z,7.97
2019-05-13T08:38:31.899Z,3.37
2019-05-13T08:41:01.703Z,3.98
2019-05-13T08:43:28.452Z,5.05
2019-05-13T08:45:56.036Z,3.52
2019-05-13T08:48:23.666Z,8.63
2019-05-13T08:50:52.155Z,3.62
2019-05-13T08:53:21.223Z,3.22
2019-05-13T08:55:51.554Z,3.37
2019-05-13T08:58:18.426Z,2.30
2019-05-13T09:00:47.957Z,4.00
2019-05-13T09:03:16.234Z,8.05
2019-05-13T09:05:43.829Z,5.12
2019-05-13T09:08:11.560Z,3.30
2019-05-13T09:10:41.285Z,2.30
2019-05-13T09:13:08.500Z,2.42
2019-05-13T09:15:36.397Z,3.85
2019-05-13T09:18:05.645Z,3.87
2019-05-13T09:20:33.242Z,3.98
2019-05-13T09:23:02.091Z,2.87
2019-05-13T09:25:31.989Z,3.83
2019-05-13T09:27:58.984Z,3.55
2019-05-13T09:30:27.374Z,3.85
2019-05-13T09:32:55.421Z,4.60
2019-05-13T09:35:23.031Z,1.85
2019-05-13T09:37:51.558Z,5.67
2019-05-13T09:40:22.220Z,2.55
2019-05-13T09:42:52.184Z,5.95
2019-05-13T09:45:18.097Z,6.15
2019-05-13T09:47:45.689Z,2.27
2019-05-13T09:50:27.643Z,3.08
2019-05-13T09:52:43.021Z,3.67
2019-05-13T09:55:25.400Z,7.47
2019-05-13T09:57:41.547Z,4.97
2019-05-13T10:00:12.019Z,7.35
2019-05-13T10:02:39.266Z,8.48
2019-05-13T10:05:06.954Z,3.40
2019-05-13T10:07:34.857Z,6.42
2019-05-13T10:10:04.464Z,3.25
2019-05-13T10:12:32.220Z,2.58
2019-05-13T10:15:02.065Z,3.33
2019-05-13T10:17:31.606Z,4.67
2019-05-13T10:19:58.380Z,3.83
2019-05-13T10:22:25.959Z,6.87
2019-05-13T10:24:53.572Z,5.45
2019-05-13T10:27:22.385Z,5.08
2019-05-13T10:29:51.706Z,5.20
2019-05-13T10:32:21.939Z,7.65
2019-05-13T10:34:49.031Z,3.02
2019-05-13T10:37:16.627Z,3.22
2019-05-13T10:39:44.248Z,6.50
2019-05-13T10:42:12.406Z,5.20
2019-05-13T10:44:42.262Z,4.75
2019-05-13T10:47:12.097Z,3.60
2019-05-13T10:49:42.444Z,3.27
2019-05-13T10:52:11.550Z,4.15
2019-05-13T10:54:38.673Z,7.80
2019-05-13T10:57:06.261Z,4.58
2019-05-13T10:59:35.047Z,7.40
2019-05-13T11:02:02.640Z,4.75
2019-05-13T11:04:32.052Z,4.25
2019-05-13T11:06:59.524Z,3.42
2019-05-13T11:09:27.109Z,4.45
2019-05-13T11:11:54.721Z,2.85
2019-05-13T11:14:22.534Z,5.03
2019-05-13T11:16:52.272Z,6.55
2019-05-13T11:19:22.607Z,4.28
2019-05-13T11:21:50.797Z,3.90
2019-05-13T11:24:18.160Z,4.45
2019-05-13T11:26:45.785Z,6.87
2019-05-13T11:29:13.378Z,5.37
2019-05-13T11:31:42.843Z,5.42
2019-05-13T11:34:10.225Z,3.55
2019-05-13T11:36:37.898Z,3.87
2019-05-13T11:39:06.170Z,3.42
2019-05-13T11:41:33.780Z,2.40
2019-05-13T11:44:12.566Z,3.02
2019-05-13T11:46:33.480Z,2.83
2019-05-13T11:49:02.470Z,4.08
2019-05-13T11:51:31.975Z,4.30
2019-05-13T11:54:01.818Z,3.35
2019-05-13T11:56:33.428Z,6.35
2019-05-13T11:58:58.811Z,5.42
2019-05-13T12:01:26.428Z,2.50
2019-05-13T12:03:54.016Z,2.98
2019-05-13T12:06:23.256Z,1.22
2019-05-13T12:08:55.015Z,2.35
2019-05-13T12:11:22.421Z,2.80
2019-05-13T12:13:52.519Z,4.17
2019-05-13T12:16:18.615Z,3.98
2019-05-13T12:18:46.210Z,5.58
2019-05-13T12:21:13.828Z,2.02
2019-05-13T12:23:42.795Z,2.52
2019-05-13T12:26:12.919Z,4.92
2019-05-13T12:28:42.255Z,6.00
2019-05-13T12:31:12.155Z,6.03
2019-05-13T12:33:39.168Z,5.87
2019-05-13T12:36:06.756Z,4.87
2019-05-13T12:38:34.378Z,3.45
2019-05-13T12:41:05.242Z,4.37
2019-05-13T12:43:42.332Z,3.35
2019-05-13T12:46:12.312Z,3.02
2019-05-13T12:48:40.134Z,3.98
2019-05-13T12:51:13.143Z,2.55
2019-05-13T12:53:37.013Z,3.95
2019-05-13T12:56:07.569Z,2.17
2019-05-13T12:58:37.532Z,4.42
2019-05-13T13:01:12.806Z,6.47
2019-05-13T13:03:40.329Z,5.08
2019-05-13T13:06:27.101Z,4.85
2019-05-13T13:08:43.521Z,2.45
2019-05-13T13:11:06.563Z,3.70
2019-05-13T13:13:57.426Z,8.25
2019-05-13T13:16:03.932Z,8.18
2019-05-13T13:18:31.783Z,6.72
2019-05-13T13:21:05.273Z,4.35
2019-05-13T13:23:29.665Z,5.40
2019-05-13T13:25:58.175Z,2.70
2019-05-13T13:28:25.837Z,4.65
2019-05-13T13:30:53.532Z,3.85
2019-05-13T13:33:21.657Z,3.45
2019-05-13T13:35:58.714Z,2.02
2019-05-13T13:38:24.388Z,4.50
2019-05-13T13:40:48.179Z,3.62
2019-05-13T13:43:15.787Z,3.33
2019-05-13T13:46:06.622Z,3.75
2019-05-13T13:48:14.619Z,3.17
2019-05-13T13:50:44.328Z,3.40
2019-05-13T13:53:14.126Z,5.03
2019-05-13T13:55:44.344Z,4.62
2019-05-13T13:58:13.816Z,6.10
2019-05-13T14:00:52.479Z,7.22
2019-05-13T14:03:08.400Z,2.08
2019-05-13T14:05:37.624Z,3.30
2019-05-13T14:08:05.258Z,2.75
2019-05-13T14:10:32.845Z,3.52
2019-05-13T14:13:04.236Z,3.10
2019-05-13T14:15:32.035Z,4.00
2019-05-13T14:17:59.216Z,1.92
2019-05-13T14:20:27.955Z,4.15
2019-05-13T14:22:58.007Z,5.42
2019-05-13T14:25:25.225Z,2.77
2019-05-13T14:27:52.800Z,2.52
2019-05-13T14:30:21.749Z,5.22
2019-05-13T14:32:51.900Z,2.45
2019-05-13T14:35:21.798Z,2.90
2019-05-13T14:37:48.561Z,1.90
2019-05-13T14:40:16.542Z,1.98
2019-05-13T14:42:44.141Z,4.60
2019-05-13T14:45:12.312Z,2.77
2019-05-13T14:47:40.229Z,5.15
2019-05-13T14:50:08.174Z,3.62
2019-05-13T14:52:36.082Z,3.50
2019-05-13T14:55:05.887Z,3.70
2019-05-13T14:57:33.858Z,2.35
2019-05-13T15:00:02.552Z,2.95
2019-05-13T15:02:31.648Z,3.75
2019-05-13T15:05:02.447Z,4.78
2019-05-13T15:07:32.207Z,2.05
2019-05-13T15:10:02.184Z,2.25
2019-05-13T15:12:28.856Z,1.55
2019-05-13T15:14:56.503Z,5.65
2019-05-13T15:17:24.067Z,4.53
2019-05-13T15:19:52.590Z,2.75
2019-05-13T15:22:22.474Z,3.22
2019-05-13T15:24:51.710Z,2.95
2019-05-13T15:27:18.662Z,3.37
2019-05-13T15:29:47.185Z,3.42
2019-05-13T15:32:14.778Z,3.15
2019-05-13T15:34:42.649Z,3.85
2019-05-13T15:37:11.283Z,1.40
2019-05-13T15:39:39.241Z,6.35
2019-05-13T15:42:06.830Z,3.17
2019-05-13T15:44:34.453Z,2.67
2019-05-13T15:47:07.206Z,4.33
2019-05-13T15:49:32.330Z,2.42
2019-05-13T15:52:01.943Z,3.42
2019-05-13T15:54:32.506Z,2.42
2019-05-13T15:56:59.182Z,6.55
2019-05-13T15:59:26.792Z,4.50
2019-05-13T16:01:54.406Z,2.17
2019-05-13T16:04:22.424Z,3.72
2019-05-13T16:06:52.109Z,3.62
2019-05-13T16:09:19.464Z,3.62
2019-05-13T16:11:48.888Z,3.77
2019-05-13T16:14:16.487Z,3.42
2019-05-13T16:16:44.099Z,3.33
2019-05-13T16:19:11.983Z,3.55
2019-05-13T16:21:41.564Z,2.70
2019-05-13T16:24:11.719Z,4.30
2019-05-13T16:26:38.244Z,4.17
2019-05-13T16:29:06.152Z,4.03
2019-05-13T16:31:33.761Z,5.85
2019-05-13T16:34:01.833Z,2.27
2019-05-13T16:36:31.370Z,1.87
2019-05-13T16:39:01.827Z,6.03
2019-05-13T16:41:28.118Z,5.33
2019-05-13T16:43:55.845Z,3.83
2019-05-13T16:46:23.508Z,5.67
2019-05-13T16:48:51.060Z,3.50
2019-05-13T16:51:21.441Z,4.42
2019-05-13T16:53:48.196Z,5.70
2019-05-13T16:56:26.723Z,5.62
2019-05-13T16:58:45.341Z,7.22
2019-05-13T17:01:12.964Z,3.60
2019-05-13T17:03:41.382Z,2.12
2019-05-13T17:06:09.291Z,5.55
2019-05-13T17:08:38.725Z,2.75
2019-05-13T17:11:06.610Z,4.08
2019-05-13T17:13:34.202Z,5.10
2019-05-13T17:16:02.123Z,2.87
2019-05-13T17:18:32.130Z,3.17
2019-05-13T17:21:01.282Z,2.85
2019-05-13T17:23:28.509Z,6.47
2019-05-13T17:25:56.104Z,6.05
2019-05-13T17:28:24.000Z,5.70
2019-05-13T17:30:52.082Z,2.90
2019-05-13T17:33:22.863Z,5.83
2019-05-13T17:35:48.985Z,4.60
2019-05-13T17:38:16.929Z,3.70
2019-05-13T17:40:49.612Z,2.08
2019-05-13T17:43:13.780Z,9.33
2019-05-13T17:45:41.819Z,4.55
2019-05-13T17:48:25.072Z,3.62
2019-05-13T17:50:38.719Z,2.85
2019-05-13T17:53:06.372Z,2.33
2019-05-13T17:55:33.963Z,4.33
2019-05-13T17:58:01.878Z,5.40
2019-05-13T18:00:32.125Z,1.77
2019-05-13T18:03:01.912Z,2.52
2019-05-13T18:05:31.509Z,5.80
2019-05-13T18:08:01.674Z,5.80
2019-05-13T18:10:28.725Z,5.28
2019-05-13T18:12:56.371Z,5.45
2019-05-13T18:15:23.965Z,6.50
2019-05-13T18:17:52.283Z,5.15
2019-05-13T18:20:21.732Z,4.22
2019-05-13T18:22:49.582Z,5.72
2019-05-13T18:25:17.898Z,3.62
2019-05-13T18:27:45.777Z,4.12
2019-05-13T18:30:13.666Z,3.70
2019-05-13T18:32:41.579Z,5.15
2019-05-13T18:35:12.025Z,5.28
2019-05-13T18:37:39.033Z,5.65
2019-05-13T18:40:06.945Z,6.83
2019-05-13T18:42:34.564Z,7.75
2019-05-13T18:45:02.747Z,5.22
2019-05-13T18:47:31.634Z,4.12
2019-05-13T18:50:02.177Z,4.55
2019-05-13T18:52:31.345Z,4.17
2019-05-13T18:54:58.997Z,4.67
2019-05-13T18:57:26.744Z,2.58
2019-05-13T18:59:54.343Z,6.72
2019-05-13T19:02:22.230Z,3.22
2019-05-13T19:04:53.502Z,3.22
2019-05-13T19:07:31.395Z,3.30
2019-05-13T19:10:04.290Z,1.60
2019-05-13T19:12:28.032Z,2.55
2019-05-13T19:14:55.977Z,6.75
2019-05-13T19:17:23.560Z,2.25
2019-05-13T19:19:51.455Z,7.28
2019-05-13T19:22:21.317Z,6.55
2019-05-13T19:24:48.661Z,3.33
2019-05-13T19:27:16.392Z,2.87
2019-05-13T19:29:44.013Z,4.85
2019-05-13T19:32:12.445Z,3.83
2019-05-13T19:34:42.342Z,4.17
2019-05-13T19:37:11.561Z,10.75
2019-05-13T19:39:39.296Z,4.50
2019-05-13T19:42:08.069Z,5.75
2019-05-13T19:44:35.739Z,2.77
2019-05-13T19:47:03.717Z,4.80
2019-05-13T19:49:36.132Z,9.45
2019-05-13T19:52:01.887Z,7.08
2019-05-13T19:54:31.414Z,2.95
2019-05-13T19:57:01.399Z,2.40
2019-05-13T19:59:28.528Z,3.25
2019-05-13T20:01:56.333Z,4.97
2019-05-13T20:04:28.020Z,2.55
2019-05-13T20:06:55.616Z,5.72
2019-05-13T20:09:48.614Z,5.83
2019-05-13T20:12:21.105Z,4.58
2019-05-13T20:14:48.858Z,3.52
2019-05-13T20:17:16.754Z,6.12
2019-05-13T20:19:50.096Z,3.70
2019-05-13T20:22:15.357Z,5.58
2019-05-13T20:24:42.993Z,5.83
2019-05-13T20:27:11.997Z,2.15
2019-05-13T20:29:42.769Z,4.00
2019-05-13T20:32:11.660Z,4.12
2019-05-13T20:34:39.720Z,3.80
2019-05-13T20:37:07.325Z,4.37
2019-05-13T20:39:35.070Z,5.28
2019-05-13T20:42:02.661Z,2.92
2019-05-13T20:44:31.350Z,2.80
2019-05-13T20:47:01.353Z,5.97
2019-05-13T20:49:28.518Z,3.20
2019-05-13T20:51:56.151Z,3.33
2019-05-13T20:54:25.080Z,3.30
2019-05-13T20:56:52.698Z,4.67
2019-05-13T20:59:21.620Z,4.78
2019-05-13T21:01:51.137Z,4.55
2019-05-13T21:04:18.974Z,2.22
2019-05-13T21:06:46.614Z,3.40
2019-05-13T21:09:16.895Z,3.98
2019-05-13T21:11:43.795Z,5.03
2019-05-13T21:14:11.352Z,3.10
2019-05-13T21:16:41.515Z,4.10
2019-05-13T21:19:08.552Z,4.12
2019-05-13T21:21:36.462Z,2.35
2019-05-13T21:24:04.048Z,6.15
2019-05-13T21:26:31.661Z,4.15
2019-05-13T21:29:01.465Z,3.42
2019-05-13T21:31:28.811Z,5.95
2019-05-13T21:33:56.690Z,6.30
2019-05-13T21:36:24.309Z,5.25
2019-05-13T21:38:51.905Z,3.50
2019-05-13T21:41:21.145Z,4.08
2019-05-13T21:43:49.236Z,5.00
2019-05-13T21:46:16.848Z,3.55
2019-05-13T21:48:44.444Z,4.62
2019-05-13T21:51:13.556Z,5.25
2019-05-13T21:53:41.453Z,4.62
2019-05-13T21:56:09.123Z,5.62
2019-05-13T21:58:37.029Z,3.02
2019-05-13T22:01:05.967Z,7.55
2019-05-13T22:03:33.824Z,4.22
2019-05-13T22:06:02.031Z,5.90
2019-05-13T22:08:31.892Z,5.72
2019-05-13T22:10:58.991Z,5.53
2019-05-13T22:13:26.577Z,3.77
2019-05-13T22:15:54.477Z,7.17
2019-05-13T22:18:22.069Z,5.78
2019-05-13T22:20:52.808Z,4.28
2019-05-13T22:23:18.929Z,4.45
2019-05-13T22:25:46.809Z,8.18
2019-05-13T22:28:14.726Z,4.87
2019-05-13T22:30:42.380Z,3.58
2019-05-13T22:33:12.142Z,4.97
2019-05-13T22:35:41.600Z,3.80
2019-05-13T22:38:09.090Z,7.08
2019-05-13T22:40:36.673Z,5.53
2019-05-13T22:43:04.424Z,4.87
2019-05-13T22:45:32.005Z,4.58
2019-05-13T22:48:02.607Z,3.98
2019-05-13T22:50:31.023Z,4.33
2019-05-13T22:53:01.287Z,3.40
2019-05-13T22:55:28.221Z,5.35
2019-05-13T22:57:55.832Z,4.00
2019-05-13T23:00:23.424Z,3.45
2019-05-13T23:02:52.460Z,5.08
2019-05-13T23:05:21.778Z,4.05
2019-05-13T23:07:51.348Z,3.10
2019-05-13T23:10:18.994Z,4.20
2019-05-13T23:12:46.622Z,5.37
2019-05-13T23:15:14.203Z,4.15
2019-05-13T23:17:42.027Z,4.58
2019-05-13T23:20:09.636Z,6.50
2019-05-13T23:22:37.260Z,3.90
2019-05-13T23:25:05.704Z,3.72
2019-05-13T23:27:33.316Z,5.92
2019-05-13T23:30:01.339Z,7.28
2019-05-13T23:32:29.016Z,4.03
2019-05-13T23:34:56.614Z,6.53
2019-05-13T23:37:24.345Z,3.70
2019-05-13T23:39:52.135Z,4.10
2019-05-13T23:42:21.202Z,6.95
2019-05-13T23:44:48.840Z,4.30
2019-05-13T23:47:16.444Z,3.58
2019-05-13T23:49:45.667Z,5.67
2019-05-13T23:52:13.302Z,4.20
2019-05-13T23:54:42.428Z,5.90
2019-05-13T23:57:11.747Z,4.22
2019-05-13T23:59:41.672Z,3.42
